sensor_id;sensor_type;location;lat;lon;timestamp;pressure;altitude;pressure_sealevel;temperature;humidity
52797;BME280;38666;43.348;12.584;2023-02-01T06:54:14;96353.19;;;2.07;69.24
52797;BME280;38666;43.348;12.584;2023-02-01T06:56:39;96350.19;;;2.30;67.72
52797;BME280;38666;43.348;12.584;2023-02-01T06:59:06;96352.03;;;2.38;68.02
52797;BME280;38666;43.348;12.584;2023-02-01T07:01:31;96365.78;;;2.45;67.51
52797;BME280;38666;43.348;12.584;2023-02-01T07:03:57;96361.53;;;2.35;66.78
52797;BME280;38666;43.348;12.584;2023-02-01T07:06:22;96357.16;;;2.31;68.25
52797;BME280;38666;43.348;12.584;2023-02-01T07:08:48;96352.97;;;2.42;67.97
52797;BME280;38666;43.348;12.584;2023-02-01T07:11:15;96356.69;;;2.50;67.25
52797;BME280;38666;43.348;12.584;2023-02-01T07:13:40;96354.78;;;2.50;67.62
52797;BME280;38666;43.348;12.584;2023-02-01T07:16:10;96355.72;;;2.55;67.80
52797;BME280;38666;43.348;12.584;2023-02-01T07:18:35;96358.13;;;2.69;68.00
52797;BME280;38666;43.348;12.584;2023-02-01T07:21:01;96357.38;;;2.81;66.69
52797;BME280;38666;43.348;12.584;2023-02-01T07:23:27;96353.09;;;2.80;66.96
52797;BME280;38666;43.348;12.584;2023-02-01T07:25:57;96356.72;;;2.84;66.08
52797;BME280;38666;43.348;12.584;2023-02-01T07:28:23;96359.28;;;2.80;66.69
52797;BME280;38666;43.348;12.584;2023-02-01T07:30:49;96358.94;;;2.82;66.24
52797;BME280;38666;43.348;12.584;2023-02-01T07:33:23;96354.22;;;2.79;66.54
52797;BME280;38666;43.348;12.584;2023-02-01T07:35:50;96358.41;;;2.88;67.36
52797;BME280;38666;43.348;12.584;2023-02-01T07:38:16;96358.91;;;3.03;67.56
52797;BME280;38666;43.348;12.584;2023-02-01T07:40:42;96352.31;;;3.13;66.75
52797;BME280;38666;43.348;12.584;2023-02-01T07:43:08;96362.22;;;3.21;67.44
52797;BME280;38666;43.348;12.584;2023-02-01T07:45:35;96353.00;;;3.35;66.56
52797;BME280;38666;43.348;12.584;2023-02-01T07:48:01;96348.28;;;3.32;67.09
52797;BME280;38666;43.348;12.584;2023-02-01T07:50:26;96365.28;;;3.32;66.88
52797;BME280;38666;43.348;12.584;2023-02-01T07:52:53;96366.94;;;3.37;65.78
52797;BME280;38666;43.348;12.584;2023-02-01T07:55:19;96368.09;;;3.36;66.40
52797;BME280;38666;43.348;12.584;2023-02-01T07:57:45;96371.44;;;3.20;67.02
52797;BME280;38666;43.348;12.584;2023-02-01T08:00:11;96365.03;;;3.25;67.09
52797;BME280;38666;43.348;12.584;2023-02-01T08:02:58;96369.00;;;3.53;66.94
52797;BME280;38666;43.348;12.584;2023-02-01T08:05:24;96373.28;;;3.54;67.13
52797;BME280;38666;43.348;12.584;2023-02-01T08:07:49;96351.53;;;3.37;67.00
52797;BME280;38666;43.348;12.584;2023-02-01T08:10:16;96365.06;;;3.50;67.16
52797;BME280;38666;43.348;12.584;2023-02-01T08:12:41;96360.25;;;3.68;67.47
52797;BME280;38666;43.348;12.584;2023-02-01T08:15:07;96369.47;;;3.92;66.54
52797;BME280;38666;43.348;12.584;2023-02-01T08:17:32;96370.81;;;4.11;65.59
52797;BME280;38666;43.348;12.584;2023-02-01T08:19:58;96371.22;;;4.26;63.92
52797;BME280;38666;43.348;12.584;2023-02-01T08:22:24;96369.66;;;4.25;61.62
52797;BME280;38666;43.348;12.584;2023-02-01T08:24:49;96372.09;;;4.42;60.54
52797;BME280;38666;43.348;12.584;2023-02-01T08:27:15;96363.97;;;4.42;60.61
52797;BME280;38666;43.348;12.584;2023-02-01T08:29:40;96374.44;;;4.44;60.31
52797;BME280;38666;43.348;12.584;2023-02-01T08:32:06;96370.09;;;4.68;59.64
52797;BME280;38666;43.348;12.584;2023-02-01T08:34:31;96373.78;;;4.76;59.34
52797;BME280;38666;43.348;12.584;2023-02-01T08:36:57;96371.56;;;4.94;58.58
52797;BME280;38666;43.348;12.584;2023-02-01T08:39:23;96375.41;;;4.93;59.21
52797;BME280;38666;43.348;12.584;2023-02-01T08:41:48;96370.69;;;4.90;60.71
52797;BME280;38666;43.348;12.584;2023-02-01T08:44:34;96372.50;;;4.86;60.55
52797;BME280;38666;43.348;12.584;2023-02-01T08:46:59;96375.00;;;5.07;60.46
52797;BME280;38666;43.348;12.584;2023-02-01T08:49:25;96379.91;;;5.17;58.30
52797;BME280;38666;43.348;12.584;2023-02-01T08:51:50;96381.66;;;5.26;57.44
52797;BME280;38666;43.348;12.584;2023-02-01T08:54:15;96372.75;;;5.41;57.48
52797;BME280;38666;43.348;12.584;2023-02-01T08:56:41;96368.59;;;5.60;57.49
52797;BME280;38666;43.348;12.584;2023-02-01T08:59:06;96363.44;;;5.71;57.28
52797;BME280;38666;43.348;12.584;2023-02-01T09:01:32;96358.69;;;5.68;57.22
52797;BME280;38666;43.348;12.584;2023-02-01T09:03:57;96363.44;;;5.87;57.32
52797;BME280;38666;43.348;12.584;2023-02-01T09:06:22;96366.91;;;5.88;56.73
52797;BME280;38666;43.348;12.584;2023-02-01T09:08:48;96369.53;;;5.84;56.56
52797;BME280;38666;43.348;12.584;2023-02-01T09:11:16;96361.22;;;5.77;56.77
52797;BME280;38666;43.348;12.584;2023-02-01T09:13:42;96370.41;;;5.72;56.29
52797;BME280;38666;43.348;12.584;2023-02-01T09:16:08;96374.78;;;5.77;57.70
52797;BME280;38666;43.348;12.584;2023-02-01T09:18:34;96374.84;;;5.97;57.70
52797;BME280;38666;43.348;12.584;2023-02-01T09:21:04;96371.00;;;5.98;57.83
52797;BME280;38666;43.348;12.584;2023-02-01T09:23:29;96362.44;;;5.96;58.54
52797;BME280;38666;43.348;12.584;2023-02-01T09:25:59;96370.94;;;6.10;57.93
52797;BME280;38666;43.348;12.584;2023-02-01T09:28:25;96391.47;;;6.11;58.47
52797;BME280;38666;43.348;12.584;2023-02-01T09:30:55;96384.75;;;6.21;57.56
52797;BME280;38666;43.348;12.584;2023-02-01T09:33:21;96376.53;;;6.37;56.52
52797;BME280;38666;43.348;12.584;2023-02-01T09:35:49;96374.25;;;6.40;55.99
52797;BME280;38666;43.348;12.584;2023-02-01T09:38:14;96366.16;;;6.23;56.84
52797;BME280;38666;43.348;12.584;2023-02-01T09:40:42;96385.78;;;6.17;57.83
52797;BME280;38666;43.348;12.584;2023-02-01T09:43:37;96386.47;;;6.30;57.55
52797;BME280;38666;43.348;12.584;2023-02-01T09:48:43;96388.56;;;6.04;59.99
52797;BME280;38666;43.348;12.584;2023-02-01T09:51:16;96391.47;;;5.95;60.74
52797;BME280;38666;43.348;12.584;2023-02-01T09:53:48;96388.66;;;6.24;59.77
52797;BME280;38666;43.348;12.584;2023-02-01T09:56:27;96381.50;;;6.16;59.13
52797;BME280;38666;43.348;12.584;2023-02-01T09:59:04;96376.34;;;5.94;60.85
52797;BME280;38666;43.348;12.584;2023-02-01T10:01:31;96376.44;;;5.98;62.17
52797;BME280;38666;43.348;12.584;2023-02-01T10:04:07;96376.16;;;6.03;60.88
52797;BME280;38666;43.348;12.584;2023-02-01T10:20:12;96358.16;;;6.67;55.59
52797;BME280;38666;43.348;12.584;2023-02-01T10:22:46;96354.69;;;7.09;54.27
52797;BME280;38666;43.348;12.584;2023-02-01T10:27:47;96348.63;;;6.96;53.98
52797;BME280;38666;43.348;12.584;2023-02-01T10:30:22;96360.84;;;6.67;54.99
52797;BME280;38666;43.348;12.584;2023-02-01T10:32:51;96348.44;;;6.66;55.02
52797;BME280;38666;43.348;12.584;2023-02-01T10:35:18;96346.69;;;6.18;56.53
52797;BME280;38666;43.348;12.584;2023-02-01T10:37:44;96339.00;;;6.04;57.16
52797;BME280;38666;43.348;12.584;2023-02-01T10:40:25;96344.38;;;6.20;57.37
52797;BME280;38666;43.348;12.584;2023-02-01T10:42:59;96337.84;;;6.41;56.88
52797;BME280;38666;43.348;12.584;2023-02-01T10:45:28;96335.69;;;6.50;56.99
52797;BME280;38666;43.348;12.584;2023-02-01T10:47:56;96332.94;;;6.46;57.12
52797;BME280;38666;43.348;12.584;2023-02-01T10:53:12;96332.53;;;6.88;56.10
52797;BME280;38666;43.348;12.584;2023-02-01T10:55:47;96327.75;;;7.01;55.62
52797;BME280;38666;43.348;12.584;2023-02-01T10:58:20;96333.94;;;7.21;54.58
52797;BME280;38666;43.348;12.584;2023-02-01T11:00:54;96329.38;;;7.05;54.89
52797;BME280;38666;43.348;12.584;2023-02-01T11:08:57;96327.53;;;7.09;55.04
52797;BME280;38666;43.348;12.584;2023-02-01T11:11:23;96323.63;;;6.87;54.73
52797;BME280;38666;43.348;12.584;2023-02-01T11:14:20;96328.34;;;6.90;55.23
52797;BME280;38666;43.348;12.584;2023-02-01T11:16:57;96320.69;;;6.96;54.63
52797;BME280;38666;43.348;12.584;2023-02-01T11:19:23;96310.88;;;6.48;56.15
52797;BME280;38666;43.348;12.584;2023-02-01T11:21:53;96315.28;;;6.36;56.12
52797;BME280;38666;43.348;12.584;2023-02-01T11:24:26;96306.94;;;6.25;57.00
52797;BME280;38666;43.348;12.584;2023-02-01T11:26:59;96306.16;;;6.25;56.91
52797;BME280;38666;43.348;12.584;2023-02-01T11:29:26;96292.63;;;6.29;56.88
52797;BME280;38666;43.348;12.584;2023-02-01T11:31:59;96290.41;;;6.14;56.91
52797;BME280;38666;43.348;12.584;2023-02-01T11:34:37;96285.09;;;6.02;57.93
52797;BME280;38666;43.348;12.584;2023-02-01T11:37:04;96285.72;;;6.31;57.01
52797;BME280;38666;43.348;12.584;2023-02-01T11:39:34;96278.44;;;6.16;58.25
52797;BME280;38666;43.348;12.584;2023-02-01T11:42:26;96280.00;;;6.17;58.12
52797;BME280;38666;43.348;12.584;2023-02-01T11:45:24;96287.16;;;6.25;57.85
52797;BME280;38666;43.348;12.584;2023-02-01T11:47:54;96280.16;;;6.24;58.14
52797;BME280;38666;43.348;12.584;2023-02-01T11:50:41;96266.66;;;6.47;57.49
52797;BME280;38666;43.348;12.584;2023-02-01T12:10:33;96244.81;;;6.40;58.05
52797;BME280;38666;43.348;12.584;2023-02-01T12:15:34;96237.25;;;6.49;58.02
52797;BME280;38666;43.348;12.584;2023-02-01T12:18:31;96234.63;;;6.77;57.85
52797;BME280;38666;43.348;12.584;2023-02-01T12:36:53;96225.16;;;7.41;55.04
52797;BME280;38666;43.348;12.584;2023-02-01T12:41:50;96217.31;;;7.63;55.41
52797;BME280;38666;43.348;12.584;2023-02-01T12:49:55;96214.13;;;7.84;55.14
52797;BME280;38666;43.348;12.584;2023-02-01T12:52:46;96223.91;;;7.89;55.31
52797;BME280;38666;43.348;12.584;2023-02-01T12:58:01;96200.28;;;7.66;55.45
52797;BME280;38666;43.348;12.584;2023-02-01T13:00:36;96206.09;;;7.95;55.05
52797;BME280;38666;43.348;12.584;2023-02-01T13:05:56;96211.97;;;7.97;54.99
52797;BME280;38666;43.348;12.584;2023-02-01T13:11:29;96204.63;;;8.01;55.29
52797;BME280;38666;43.348;12.584;2023-02-01T13:14:05;96207.25;;;8.28;54.44
52797;BME280;38666;43.348;12.584;2023-02-01T13:21:39;96213.19;;;8.03;56.52
52797;BME280;38666;43.348;12.584;2023-02-01T13:24:20;96204.25;;;8.37;55.10
52797;BME280;38666;43.348;12.584;2023-02-01T13:26:47;96207.78;;;8.76;53.90
52797;BME280;38666;43.348;12.584;2023-02-01T13:29:13;96201.97;;;8.77;54.58
52797;BME280;38666;43.348;12.584;2023-02-01T13:34:35;96197.88;;;11.75;47.21
52797;BME280;38666;43.348;12.584;2023-02-01T13:37:31;96199.81;;;12.75;44.92
52797;BME280;38666;43.348;12.584;2023-02-01T13:42:48;96196.25;;;16.73;35.80
52797;BME280;38666;43.348;12.584;2023-02-01T13:45:19;96183.44;;;16.46;35.36
52797;BME280;38666;43.348;12.584;2023-02-01T13:47:47;96176.81;;;15.38;37.33
52797;BME280;38666;43.348;12.584;2023-02-01T13:52:53;96181.94;;;14.29;40.16
52797;BME280;38666;43.348;12.584;2023-02-01T13:57:44;96180.28;;;18.24;34.11
52797;BME280;38666;43.348;12.584;2023-02-01T14:13:39;96189.03;;;13.56;40.89
52797;BME280;38666;43.348;12.584;2023-02-01T14:23:42;96167.50;;;11.37;46.55
52797;BME280;38666;43.348;12.584;2023-02-01T14:39:52;96195.31;;;9.84;52.39
52797;BME280;38666;43.348;12.584;2023-02-01T14:44:54;96192.19;;;9.85;53.14
52797;BME280;38666;43.348;12.584;2023-02-01T14:52:35;96184.22;;;9.55;54.63
52797;BME280;38666;43.348;12.584;2023-02-01T14:55:12;96186.84;;;9.36;55.63
52797;BME280;38666;43.348;12.584;2023-02-01T14:57:40;96177.03;;;9.24;56.10
52797;BME280;38666;43.348;12.584;2023-02-01T15:00:17;96180.38;;;9.59;55.36
52797;BME280;38666;43.348;12.584;2023-02-01T15:02:44;96187.72;;;9.51;55.49
52797;BME280;38666;43.348;12.584;2023-02-01T15:05:30;96174.81;;;9.41;56.27
52797;BME280;38666;43.348;12.584;2023-02-01T15:08:00;96183.38;;;9.39;56.21
52797;BME280;38666;43.348;12.584;2023-02-01T15:10:30;96191.81;;;9.23;57.08
52797;BME280;38666;43.348;12.584;2023-02-01T15:12:56;96198.63;;;8.95;58.31
52797;BME280;38666;43.348;12.584;2023-02-01T15:15:24;96189.38;;;9.07;58.07
52797;BME280;38666;43.348;12.584;2023-02-01T15:17:57;96185.41;;;8.97;58.65
52797;BME280;38666;43.348;12.584;2023-02-01T15:20:31;96207.09;;;8.86;59.86
52797;BME280;38666;43.348;12.584;2023-02-01T15:22:57;96207.59;;;8.99;59.35
52797;BME280;38666;43.348;12.584;2023-02-01T15:25:29;96212.38;;;9.10;59.16
52797;BME280;38666;43.348;12.584;2023-02-01T15:27:56;96215.84;;;9.10;58.99
52797;BME280;38666;43.348;12.584;2023-02-01T15:30:30;96222.50;;;9.13;59.38
52797;BME280;38666;43.348;12.584;2023-02-01T15:35:48;96204.19;;;8.68;60.09
52797;BME280;38666;43.348;12.584;2023-02-01T15:40:59;96200.56;;;8.57;61.01
52797;BME280;38666;43.348;12.584;2023-02-01T15:43:27;96203.59;;;8.51;61.45
52797;BME280;38666;43.348;12.584;2023-02-01T15:45:59;96202.34;;;8.41;61.69
52797;BME280;38666;43.348;12.584;2023-02-01T15:48:27;96203.41;;;8.29;62.26
52797;BME280;38666;43.348;12.584;2023-02-01T15:50:54;96202.22;;;8.30;62.80
52797;BME280;38666;43.348;12.584;2023-02-01T15:53:23;96218.22;;;8.36;62.97
52797;BME280;38666;43.348;12.584;2023-02-01T15:55:55;96223.66;;;8.36;62.84
52797;BME280;38666;43.348;12.584;2023-02-01T15:58:23;96220.50;;;8.30;63.75
52797;BME280;38666;43.348;12.584;2023-02-01T16:00:58;96215.75;;;8.23;63.96
52797;BME280;38666;43.348;12.584;2023-02-01T16:06:00;96218.84;;;8.22;63.92
52797;BME280;38666;43.348;12.584;2023-02-01T16:08:28;96219.13;;;8.13;65.19
52797;BME280;38666;43.348;12.584;2023-02-01T16:11:01;96214.81;;;8.08;64.70
52797;BME280;38666;43.348;12.584;2023-02-01T16:13:27;96219.47;;;8.07;64.21
52797;BME280;38666;43.348;12.584;2023-02-01T16:15:53;96226.03;;;8.03;64.43
52797;BME280;38666;43.348;12.584;2023-02-01T16:18:18;96216.19;;;7.94;65.18
52797;BME280;38666;43.348;12.584;2023-02-01T16:20:44;96207.13;;;7.83;65.73
52797;BME280;38666;43.348;12.584;2023-02-01T16:23:10;96205.00;;;7.69;66.32
52797;BME280;38666;43.348;12.584;2023-02-01T16:25:37;96197.06;;;7.56;67.72
52797;BME280;38666;43.348;12.584;2023-02-01T16:28:03;96199.25;;;7.47;67.33
52797;BME280;38666;43.348;12.584;2023-02-01T16:30:30;96189.34;;;7.31;68.26
52797;BME280;38666;43.348;12.584;2023-02-01T16:32:57;96188.84;;;7.26;68.59
52797;BME280;38666;43.348;12.584;2023-02-01T16:35:27;96197.56;;;7.12;68.67
52797;BME280;38666;43.348;12.584;2023-02-01T16:37:53;96203.31;;;7.06;69.87
52797;BME280;38666;43.348;12.584;2023-02-01T16:40:20;96195.84;;;7.00;70.04
52797;BME280;38666;43.348;12.584;2023-02-01T16:42:50;96203.19;;;6.99;70.37
52797;BME280;38666;43.348;12.584;2023-02-01T16:45:16;96206.75;;;7.03;70.22
52797;BME280;38666;43.348;12.584;2023-02-01T16:47:46;96209.81;;;7.02;70.24
52797;BME280;38666;43.348;12.584;2023-02-01T16:50:17;96214.06;;;6.99;70.87
52797;BME280;38666;43.348;12.584;2023-02-01T16:52:44;96210.59;;;7.02;70.73
52797;BME280;38666;43.348;12.584;2023-02-01T16:55:14;96205.91;;;6.99;71.07
52797;BME280;38666;43.348;12.584;2023-02-01T16:57:41;96215.63;;;7.00;71.58
52797;BME280;38666;43.348;12.584;2023-02-01T17:00:08;96214.84;;;7.00;71.51
52797;BME280;38666;43.348;12.584;2023-02-01T17:02:34;96217.50;;;6.96;71.40
52797;BME280;38666;43.348;12.584;2023-02-01T17:05:00;96222.50;;;6.94;71.09
52797;BME280;38666;43.348;12.584;2023-02-01T17:07:26;96230.28;;;6.95;71.24
52797;BME280;38666;43.348;12.584;2023-02-01T17:09:52;96218.22;;;6.93;71.09
52797;BME280;38666;43.348;12.584;2023-02-01T17:12:29;96231.91;;;7.00;71.58
52797;BME280;38666;43.348;12.584;2023-02-01T17:14:56;96229.63;;;7.02;70.79
52797;BME280;38666;43.348;12.584;2023-02-01T17:17:23;96227.63;;;6.99;71.39
52797;BME280;38666;43.348;12.584;2023-02-01T17:19:50;96238.13;;;7.01;71.52
52797;BME280;38666;43.348;12.584;2023-02-01T17:22:19;96235.72;;;6.95;71.27
52797;BME280;38666;43.348;12.584;2023-02-01T17:24:44;96234.50;;;6.93;71.67
52797;BME280;38666;43.348;12.584;2023-02-01T17:27:10;96228.59;;;6.87;71.87
52797;BME280;38666;43.348;12.584;2023-02-01T17:29:35;96230.97;;;6.89;71.96
52797;BME280;38666;43.348;12.584;2023-02-01T17:32:01;96227.38;;;6.84;72.05
52797;BME280;38666;43.348;12.584;2023-02-01T17:34:27;96216.84;;;6.79;72.38
52797;BME280;38666;43.348;12.584;2023-02-01T17:36:53;96212.56;;;6.78;72.50
52797;BME280;38666;43.348;12.584;2023-02-01T17:39:18;96224.25;;;6.82;72.17
52797;BME280;38666;43.348;12.584;2023-02-01T17:42:04;96225.53;;;6.89;71.93
52797;BME280;38666;43.348;12.584;2023-02-01T17:44:30;96217.69;;;6.83;72.54
52797;BME280;38666;43.348;12.584;2023-02-01T17:46:56;96219.53;;;6.79;73.22
52797;BME280;38666;43.348;12.584;2023-02-01T17:49:23;96223.06;;;6.80;73.36
52797;BME280;38666;43.348;12.584;2023-02-01T17:51:49;96212.06;;;6.72;73.41
52797;BME280;38666;43.348;12.584;2023-02-01T17:54:17;96218.28;;;6.73;73.15
52797;BME280;38666;43.348;12.584;2023-02-01T17:56:45;96212.44;;;6.71;73.36
52797;BME280;38666;43.348;12.584;2023-02-01T17:59:13;96216.72;;;6.72;74.03
52797;BME280;38666;43.348;12.584;2023-02-01T18:01:39;96225.28;;;6.74;73.68
52797;BME280;38666;43.348;12.584;2023-02-01T18:04:05;96221.84;;;6.77;73.80
52797;BME280;38666;43.348;12.584;2023-02-01T18:06:33;96220.34;;;6.80;73.15
52797;BME280;38666;43.348;12.584;2023-02-01T18:08:59;96220.69;;;6.78;73.10
52797;BME280;38666;43.348;12.584;2023-02-01T18:11:24;96219.97;;;6.81;72.83
52797;BME280;38666;43.348;12.584;2023-02-01T18:13:51;96217.81;;;6.91;71.84
52797;BME280;38666;43.348;12.584;2023-02-01T18:16:20;96215.09;;;6.91;71.48
52797;BME280;38666;43.348;12.584;2023-02-01T18:18:46;96220.09;;;6.89;70.47
52797;BME280;38666;43.348;12.584;2023-02-01T18:21:13;96225.66;;;6.96;70.68
52797;BME280;38666;43.348;12.584;2023-02-01T18:23:38;96234.75;;;6.84;71.43
52797;BME280;38666;43.348;12.584;2023-02-01T18:26:04;96219.25;;;6.84;71.00
52797;BME280;38666;43.348;12.584;2023-02-01T18:28:30;96226.53;;;6.80;71.20
52797;BME280;38666;43.348;12.584;2023-02-01T18:30:55;96233.19;;;6.83;71.56
52797;BME280;38666;43.348;12.584;2023-02-01T18:33:21;96225.03;;;6.83;71.27
52797;BME280;38666;43.348;12.584;2023-02-01T18:35:46;96236.25;;;6.81;71.39
52797;BME280;38666;43.348;12.584;2023-02-01T18:38:12;96231.69;;;6.85;71.71
52797;BME280;38666;43.348;12.584;2023-02-01T18:43:12;96235.97;;;6.86;71.72
52797;BME280;38666;43.348;12.584;2023-02-01T18:45:40;96227.75;;;6.83;72.07
52797;BME280;38666;43.348;12.584;2023-02-01T18:48:08;96235.84;;;6.79;72.21
52797;BME280;38666;43.348;12.584;2023-02-01T18:50:37;96238.47;;;6.76;73.02
